sensor_id;sensor_type;location;lat;lon;timestamp;temperature;humidity
65876;HTU21D;52657;51.128;5.938;2022-10-26T00:01:44;15.00;73.51
65876;HTU21D;52657;51.128;5.938;2022-10-26T00:04:10;15.02;73.38
65876;HTU21D;52657;51.128;5.938;2022-10-26T00:06:36;15.01;73.34
65876;HTU21D;52657;51.128;5.938;2022-10-26T00:09:01;15.01;73.50
65876;HTU21D;52657;51.128;5.938;2022-10-26T00:11:27;15.01;73.45
65876;HTU21D;52657;51.128;5.938;2022-10-26T00:13:53;14.97;73.57
65876;HTU21D;52657;51.128;5.938;2022-10-26T00:16:23;14.94;73.64
65876;HTU21D;52657;51.128;5.938;2022-10-26T00:18:50;14.93;73.82
65876;HTU21D;52657;51.128;5.938;2022-10-26T00:21:16;14.93;73.90
65876;HTU21D;52657;51.128;5.938;2022-10-26T00:23:42;14.95;73.96
65876;HTU21D;52657;51.128;5.938;2022-10-26T00:26:08;14.95;73.92
65876;HTU21D;52657;51.128;5.938;2022-10-26T00:28:34;14.95;73.93
65876;HTU21D;52657;51.128;5.938;2022-10-26T00:31:03;14.95;74.04
65876;HTU21D;52657;51.128;5.938;2022-10-26T00:33:29;14.96;74.07
65876;HTU21D;52657;51.128;5.938;2022-10-26T00:35:55;14.96;74.11
65876;HTU21D;52657;51.128;5.938;2022-10-26T00:38:21;14.98;74.07
65876;HTU21D;52657;51.128;5.938;2022-10-26T00:40:47;14.98;74.05
65876;HTU21D;52657;51.128;5.938;2022-10-26T00:43:15;14.98;74.02
65876;HTU21D;52657;51.128;5.938;2022-10-26T00:45:59;14.98;73.93
65876;HTU21D;52657;51.128;5.938;2022-10-26T00:48:31;14.95;73.95
65876;HTU21D;52657;51.128;5.938;2022-10-26T00:51:02;14.94;74.00
65876;HTU21D;52657;51.128;5.938;2022-10-26T00:53:33;14.93;74.06
65876;HTU21D;52657;51.128;5.938;2022-10-26T00:56:10;14.93;74.15
65876;HTU21D;52657;51.128;5.938;2022-10-26T00:58:45;14.93;74.12
65876;HTU21D;52657;51.128;5.938;2022-10-26T01:01:11;14.95;73.96
65876;HTU21D;52657;51.128;5.938;2022-10-26T01:03:37;14.93;73.85
65876;HTU21D;52657;51.128;5.938;2022-10-26T01:06:04;14.91;73.82
65876;HTU21D;52657;51.128;5.938;2022-10-26T01:08:31;14.88;73.95
65876;HTU21D;52657;51.128;5.938;2022-10-26T01:10:59;14.88;73.98
65876;HTU21D;52657;51.128;5.938;2022-10-26T01:13:31;14.87;74.04
65876;HTU21D;52657;51.128;5.938;2022-10-26T01:27:35;14.82;74.54
65876;HTU21D;52657;51.128;5.938;2022-10-26T01:33:11;14.84;74.58
65876;HTU21D;52657;51.128;5.938;2022-10-26T01:36:00;14.85;74.60
65876;HTU21D;52657;51.128;5.938;2022-10-26T01:41:27;14.85;74.65
65876;HTU21D;52657;51.128;5.938;2022-10-26T01:44:00;14.88;74.62
65876;HTU21D;52657;51.128;5.938;2022-10-26T01:46:32;14.92;74.60
65876;HTU21D;52657;51.128;5.938;2022-10-26T01:49:08;14.92;74.60
65876;HTU21D;52657;51.128;5.938;2022-10-26T01:51:35;14.92;74.62
65876;HTU21D;52657;51.128;5.938;2022-10-26T01:54:02;14.93;74.68
65876;HTU21D;52657;51.128;5.938;2022-10-26T01:56:36;14.95;74.68
65876;HTU21D;52657;51.128;5.938;2022-10-26T01:59:12;14.98;74.59
65876;HTU21D;52657;51.128;5.938;2022-10-26T02:07:05;15.03;74.47
65876;HTU21D;52657;51.128;5.938;2022-10-26T02:15:21;15.07;74.47
65876;HTU21D;52657;51.128;5.938;2022-10-26T02:17:51;15.09;74.49
65876;HTU21D;52657;51.128;5.938;2022-10-26T02:20:27;15.10;74.48
65876;HTU21D;52657;51.128;5.938;2022-10-26T02:23:02;15.12;74.47
65876;HTU21D;52657;51.128;5.938;2022-10-26T02:25:32;15.15;74.43
65876;HTU21D;52657;51.128;5.938;2022-10-26T02:28:05;15.17;74.38
65876;HTU21D;52657;51.128;5.938;2022-10-26T02:30:32;15.21;74.35
65876;HTU21D;52657;51.128;5.938;2022-10-26T02:33:02;15.24;74.23
65876;HTU21D;52657;51.128;5.938;2022-10-26T02:35:32;15.22;74.23
65876;HTU21D;52657;51.128;5.938;2022-10-26T02:38:03;15.21;74.29
65876;HTU21D;52657;51.128;5.938;2022-10-26T02:40:31;15.23;74.29
65876;HTU21D;52657;51.128;5.938;2022-10-26T02:43:05;15.26;74.31
65876;HTU21D;52657;51.128;5.938;2022-10-26T02:45:37;15.27;74.25
65876;HTU21D;52657;51.128;5.938;2022-10-26T02:48:05;15.28;74.31
65876;HTU21D;52657;51.128;5.938;2022-10-26T02:51:07;15.28;74.38
65876;HTU21D;52657;51.128;5.938;2022-10-26T02:56:29;15.31;74.26
65876;HTU21D;52657;51.128;5.938;2022-10-26T02:59:03;15.33;74.31
65876;HTU21D;52657;51.128;5.938;2022-10-26T03:01:31;15.36;74.25
65876;HTU21D;52657;51.128;5.938;2022-10-26T03:03:59;15.36;74.23
65876;HTU21D;52657;51.128;5.938;2022-10-26T03:06:25;15.36;74.21
65876;HTU21D;52657;51.128;5.938;2022-10-26T03:08:51;15.33;74.23
65876;HTU21D;52657;51.128;5.938;2022-10-26T03:11:18;15.34;74.31
65876;HTU21D;52657;51.128;5.938;2022-10-26T03:13:44;15.34;74.34
65876;HTU21D;52657;51.128;5.938;2022-10-26T03:16:10;15.36;74.36
65876;HTU21D;52657;51.128;5.938;2022-10-26T03:18:38;15.34;74.35
65876;HTU21D;52657;51.128;5.938;2022-10-26T03:21:04;15.36;74.35
65876;HTU21D;52657;51.128;5.938;2022-10-26T03:23:30;15.36;74.41
65876;HTU21D;52657;51.128;5.938;2022-10-26T03:25:57;15.37;74.43
65876;HTU21D;52657;51.128;5.938;2022-10-26T03:28:23;15.37;74.39
65876;HTU21D;52657;51.128;5.938;2022-10-26T03:30:49;15.37;74.38
65876;HTU21D;52657;51.128;5.938;2022-10-26T03:33:14;15.37;74.47
65876;HTU21D;52657;51.128;5.938;2022-10-26T03:35:40;15.41;74.38
65876;HTU21D;52657;51.128;5.938;2022-10-26T03:38:06;15.45;74.31
65876;HTU21D;52657;51.128;5.938;2022-10-26T03:40:31;15.46;74.26
65876;HTU21D;52657;51.128;5.938;2022-10-26T03:42:57;15.52;74.05
65876;HTU21D;52657;51.128;5.938;2022-10-26T03:45:23;15.49;74.09
65876;HTU21D;52657;51.128;5.938;2022-10-26T03:47:49;15.51;74.11
65876;HTU21D;52657;51.128;5.938;2022-10-26T03:50:18;15.52;74.14
65876;HTU21D;52657;51.128;5.938;2022-10-26T03:52:46;15.53;74.13
65876;HTU21D;52657;51.128;5.938;2022-10-26T03:55:12;15.53;74.09
65876;HTU21D;52657;51.128;5.938;2022-10-26T03:57:43;15.52;74.18
65876;HTU21D;52657;51.128;5.938;2022-10-26T04:00:11;15.54;74.23
65876;HTU21D;52657;51.128;5.938;2022-10-26T04:02:42;15.55;74.22
65876;HTU21D;52657;51.128;5.938;2022-10-26T04:05:11;15.56;74.19
65876;HTU21D;52657;51.128;5.938;2022-10-26T04:07:37;15.58;74.09
65876;HTU21D;52657;51.128;5.938;2022-10-26T04:10:03;15.60;74.02
65876;HTU21D;52657;51.128;5.938;2022-10-26T04:12:29;15.60;74.02
65876;HTU21D;52657;51.128;5.938;2022-10-26T04:14:55;15.63;73.96
65876;HTU21D;52657;51.128;5.938;2022-10-26T04:17:23;15.66;73.87
65876;HTU21D;52657;51.128;5.938;2022-10-26T04:19:49;15.67;73.85
65876;HTU21D;52657;51.128;5.938;2022-10-26T04:22:15;15.68;73.78
65876;HTU21D;52657;51.128;5.938;2022-10-26T04:24:41;15.69;73.76
65876;HTU21D;52657;51.128;5.938;2022-10-26T04:27:12;15.69;73.73
65876;HTU21D;52657;51.128;5.938;2022-10-26T04:29:38;15.72;73.80
65876;HTU21D;52657;51.128;5.938;2022-10-26T04:32:03;15.72;73.82
65876;HTU21D;52657;51.128;5.938;2022-10-26T04:34:29;15.73;73.77
65876;HTU21D;52657;51.128;5.938;2022-10-26T04:36:55;15.74;73.70
65876;HTU21D;52657;51.128;5.938;2022-10-26T04:39:20;15.76;73.69
65876;HTU21D;52657;51.128;5.938;2022-10-26T04:41:49;15.76;73.61
65876;HTU21D;52657;51.128;5.938;2022-10-26T04:44:14;15.75;73.59
65876;HTU21D;52657;51.128;5.938;2022-10-26T04:46:43;15.73;73.65
65876;HTU21D;52657;51.128;5.938;2022-10-26T04:49:09;15.72;73.65
65876;HTU21D;52657;51.128;5.938;2022-10-26T04:51:34;15.74;73.67
65876;HTU21D;52657;51.128;5.938;2022-10-26T04:54:00;15.75;73.63
65876;HTU21D;52657;51.128;5.938;2022-10-26T04:56:29;15.77;73.60
65876;HTU21D;52657;51.128;5.938;2022-10-26T04:58:55;15.77;73.59
65876;HTU21D;52657;51.128;5.938;2022-10-26T05:01:22;15.81;73.48
65876;HTU21D;52657;51.128;5.938;2022-10-26T05:03:49;15.78;73.41
65876;HTU21D;52657;51.128;5.938;2022-10-26T05:06:15;15.81;73.50
65876;HTU21D;52657;51.128;5.938;2022-10-26T05:08:40;15.83;73.40
65876;HTU21D;52657;51.128;5.938;2022-10-26T05:11:06;15.81;73.42
65876;HTU21D;52657;51.128;5.938;2022-10-26T05:13:32;15.82;73.51
65876;HTU21D;52657;51.128;5.938;2022-10-26T05:15:57;15.85;73.52
65876;HTU21D;52657;51.128;5.938;2022-10-26T05:18:25;15.87;73.50
65876;HTU21D;52657;51.128;5.938;2022-10-26T05:20:52;15.89;73.35
65876;HTU21D;52657;51.128;5.938;2022-10-26T05:23:19;15.89;73.28
65876;HTU21D;52657;51.128;5.938;2022-10-26T05:25:45;15.90;73.26
65876;HTU21D;52657;51.128;5.938;2022-10-26T05:28:13;15.92;73.25
65876;HTU21D;52657;51.128;5.938;2022-10-26T05:30:41;15.91;73.26
65876;HTU21D;52657;51.128;5.938;2022-10-26T05:33:09;15.91;73.22
65876;HTU21D;52657;51.128;5.938;2022-10-26T05:35:35;15.91;73.31
65876;HTU21D;52657;51.128;5.938;2022-10-26T05:38:14;15.95;73.32
65876;HTU21D;52657;51.128;5.938;2022-10-26T05:40:53;15.98;73.32
65876;HTU21D;52657;51.128;5.938;2022-10-26T05:43:21;16.02;73.18
65876;HTU21D;52657;51.128;5.938;2022-10-26T05:45:53;16.03;73.37
65876;HTU21D;52657;51.128;5.938;2022-10-26T05:48:22;16.04;73.25
65876;HTU21D;52657;51.128;5.938;2022-10-26T05:50:48;16.06;73.26
65876;HTU21D;52657;51.128;5.938;2022-10-26T05:53:13;16.07;73.25
65876;HTU21D;52657;51.128;5.938;2022-10-26T05:55:39;16.07;73.22
65876;HTU21D;52657;51.128;5.938;2022-10-26T05:58:12;16.07;73.20
65876;HTU21D;52657;51.128;5.938;2022-10-26T06:03:43;16.07;73.06
65876;HTU21D;52657;51.128;5.938;2022-10-26T06:06:13;16.07;72.93
65876;HTU21D;52657;51.128;5.938;2022-10-26T06:08:39;16.08;72.90
65876;HTU21D;52657;51.128;5.938;2022-10-26T06:11:07;16.08;72.90
65876;HTU21D;52657;51.128;5.938;2022-10-26T06:13:33;16.10;72.87
65876;HTU21D;52657;51.128;5.938;2022-10-26T06:16:28;16.05;72.95
65876;HTU21D;52657;51.128;5.938;2022-10-26T06:24:20;16.01;73.22
65876;HTU21D;52657;51.128;5.938;2022-10-26T06:27:06;16.02;73.35
65876;HTU21D;52657;51.128;5.938;2022-10-26T06:30:00;16.06;73.39
65876;HTU21D;52657;51.128;5.938;2022-10-26T06:32:30;16.06;73.35
65876;HTU21D;52657;51.128;5.938;2022-10-26T06:35:24;16.07;73.39
65876;HTU21D;52657;51.128;5.938;2022-10-26T06:37:53;16.08;73.41
65876;HTU21D;52657;51.128;5.938;2022-10-26T06:40:20;16.13;73.43
65876;HTU21D;52657;51.128;5.938;2022-10-26T06:42:47;16.16;73.36
65876;HTU21D;52657;51.128;5.938;2022-10-26T06:45:14;16.19;73.27
65876;HTU21D;52657;51.128;5.938;2022-10-26T06:47:56;16.22;73.13
65876;HTU21D;52657;51.128;5.938;2022-10-26T06:50:37;16.26;73.01
65876;HTU21D;52657;51.128;5.938;2022-10-26T06:55:40;16.32;72.87
65876;HTU21D;52657;51.128;5.938;2022-10-26T06:58:22;16.33;72.95
65876;HTU21D;52657;51.128;5.938;2022-10-26T07:00:51;16.33;72.99
65876;HTU21D;52657;51.128;5.938;2022-10-26T07:03:17;16.35;72.98
65876;HTU21D;52657;51.128;5.938;2022-10-26T07:05:43;16.36;73.00
65876;HTU21D;52657;51.128;5.938;2022-10-26T07:08:12;16.35;73.03
65876;HTU21D;52657;51.128;5.938;2022-10-26T07:10:38;16.36;73.08
65876;HTU21D;52657;51.128;5.938;2022-10-26T07:13:05;16.39;73.09
65876;HTU21D;52657;51.128;5.938;2022-10-26T07:15:32;16.41;73.21
65876;HTU21D;52657;51.128;5.938;2022-10-26T07:18:02;16.42;73.31
65876;HTU21D;52657;51.128;5.938;2022-10-26T07:20:31;16.46;73.41
65876;HTU21D;52657;51.128;5.938;2022-10-26T07:22:57;16.49;73.57
65876;HTU21D;52657;51.128;5.938;2022-10-26T07:25:24;16.58;73.90
65876;HTU21D;52657;51.128;5.938;2022-10-26T07:27:51;16.73;73.87
65876;HTU21D;52657;51.128;5.938;2022-10-26T07:30:17;16.81;73.53
65876;HTU21D;52657;51.128;5.938;2022-10-26T07:32:43;16.93;73.25
65876;HTU21D;52657;51.128;5.938;2022-10-26T07:35:09;17.06;73.11
65876;HTU21D;52657;51.128;5.938;2022-10-26T07:37:35;17.16;72.75
65876;HTU21D;52657;51.128;5.938;2022-10-26T07:40:01;17.25;72.58
65876;HTU21D;52657;51.128;5.938;2022-10-26T07:42:26;17.34;72.25
65876;HTU21D;52657;51.128;5.938;2022-10-26T07:44:52;17.38;71.87
65876;HTU21D;52657;51.128;5.938;2022-10-26T07:47:18;17.37;71.80
65876;HTU21D;52657;51.128;5.938;2022-10-26T07:49:43;17.36;71.80
65876;HTU21D;52657;51.128;5.938;2022-10-26T07:52:09;17.38;71.97
65876;HTU21D;52657;51.128;5.938;2022-10-26T07:54:38;17.48;71.95
65876;HTU21D;52657;51.128;5.938;2022-10-26T07:57:04;17.85;71.55
65876;HTU21D;52657;51.128;5.938;2022-10-26T07:59:29;18.35;70.10
65876;HTU21D;52657;51.128;5.938;2022-10-26T08:01:55;18.89;68.71
65876;HTU21D;52657;51.128;5.938;2022-10-26T08:04:20;19.44;67.30
65876;HTU21D;52657;51.128;5.938;2022-10-26T08:06:46;20.02;66.30
65876;HTU21D;52657;51.128;5.938;2022-10-26T08:09:13;20.58;64.61
65876;HTU21D;52657;51.128;5.938;2022-10-26T08:11:39;21.13;63.00
65876;HTU21D;52657;51.128;5.938;2022-10-26T08:14:07;21.67;61.49
65876;HTU21D;52657;51.128;5.938;2022-10-26T08:16:32;22.19;59.59
65876;HTU21D;52657;51.128;5.938;2022-10-26T08:18:59;22.58;58.15
65876;HTU21D;52657;51.128;5.938;2022-10-26T08:21:25;23.01;56.45
65876;HTU21D;52657;51.128;5.938;2022-10-26T08:23:50;23.29;55.74
65876;HTU21D;52657;51.128;5.938;2022-10-26T08:26:16;23.56;54.79
65876;HTU21D;52657;51.128;5.938;2022-10-26T08:28:43;23.74;54.56
65876;HTU21D;52657;51.128;5.938;2022-10-26T08:31:08;23.85;53.78
65876;HTU21D;52657;51.128;5.938;2022-10-26T08:33:34;24.01;53.95
65876;HTU21D;52657;51.128;5.938;2022-10-26T08:36:01;24.05;52.93
65876;HTU21D;52657;51.128;5.938;2022-10-26T08:38:28;24.09;53.34
65876;HTU21D;52657;51.128;5.938;2022-10-26T08:40:56;24.05;53.22
65876;HTU21D;52657;51.128;5.938;2022-10-26T08:43:48;24.00;53.10
65876;HTU21D;52657;51.128;5.938;2022-10-26T08:46:37;24.06;53.37
65876;HTU21D;52657;51.128;5.938;2022-10-26T08:49:29;24.40;53.10
65876;HTU21D;52657;51.128;5.938;2022-10-26T08:52:00;24.55;52.56
65876;HTU21D;52657;51.128;5.938;2022-10-26T08:54:56;24.63;51.75
65876;HTU21D;52657;51.128;5.938;2022-10-26T08:57:28;24.49;51.79
65876;HTU21D;52657;51.128;5.938;2022-10-26T09:00:11;24.47;51.89
65876;HTU21D;52657;51.128;5.938;2022-10-26T09:02:37;24.47;51.70
65876;HTU21D;52657;51.128;5.938;2022-10-26T09:05:03;24.47;52.05
65876;HTU21D;52657;51.128;5.938;2022-10-26T09:15:36;24.93;51.27
65876;HTU21D;52657;51.128;5.938;2022-10-26T09:18:11;24.90;50.95
65876;HTU21D;52657;51.128;5.938;2022-10-26T09:26:01;24.50;50.73
65876;HTU21D;52657;51.128;5.938;2022-10-26T09:28:36;24.04;51.56
65876;HTU21D;52657;51.128;5.938;2022-10-26T09:31:03;23.62;52.83
65876;HTU21D;52657;51.128;5.938;2022-10-26T09:33:34;23.31;53.94
65876;HTU21D;52657;51.128;5.938;2022-10-26T09:36:04;22.99;54.88
65876;HTU21D;52657;51.128;5.938;2022-10-26T09:38:57;22.64;55.91
65876;HTU21D;52657;51.128;5.938;2022-10-26T09:41:52;22.34;56.74
65876;HTU21D;52657;51.128;5.938;2022-10-26T09:44:38;22.14;58.16
65876;HTU21D;52657;51.128;5.938;2022-10-26T09:50:14;21.89;58.77
65876;HTU21D;52657;51.128;5.938;2022-10-26T09:52:41;21.75;59.22
65876;HTU21D;52657;51.128;5.938;2022-10-26T09:55:11;21.70;59.72
65876;HTU21D;52657;51.128;5.938;2022-10-26T09:57:40;21.68;59.80
65876;HTU21D;52657;51.128;5.938;2022-10-26T10:00:15;21.69;60.28
65876;HTU21D;52657;51.128;5.938;2022-10-26T10:02:51;21.70;60.41
65876;HTU21D;52657;51.128;5.938;2022-10-26T10:07:49;21.76;60.01
65876;HTU21D;52657;51.128;5.938;2022-10-26T10:12:41;21.78;60.31
65876;HTU21D;52657;51.128;5.938;2022-10-26T10:15:20;21.78;60.76
65876;HTU21D;52657;51.128;5.938;2022-10-26T10:17:52;21.80;60.55
65876;HTU21D;52657;51.128;5.938;2022-10-26T10:20:31;21.79;60.79
65876;HTU21D;52657;51.128;5.938;2022-10-26T10:23:01;21.81;60.81
65876;HTU21D;52657;51.128;5.938;2022-10-26T10:25:33;21.85;60.87
65876;HTU21D;52657;51.128;5.938;2022-10-26T10:27:59;21.89;60.99
65876;HTU21D;52657;51.128;5.938;2022-10-26T10:30:31;21.93;60.83
65876;HTU21D;52657;51.128;5.938;2022-10-26T10:33:10;21.94;60.73
65876;HTU21D;52657;51.128;5.938;2022-10-26T10:35:45;22.02;60.93
65876;HTU21D;52657;51.128;5.938;2022-10-26T10:38:17;22.10;61.04
65876;HTU21D;52657;51.128;5.938;2022-10-26T10:40:54;22.14;60.87
65876;HTU21D;52657;51.128;5.938;2022-10-26T10:43:21;22.18;60.79
65876;HTU21D;52657;51.128;5.938;2022-10-26T10:45:53;22.19;60.73
65876;HTU21D;52657;51.128;5.938;2022-10-26T10:48:27;22.17;60.83
65876;HTU21D;52657;51.128;5.938;2022-10-26T10:50:56;22.17;60.88
65876;HTU21D;52657;51.128;5.938;2022-10-26T10:53:35;22.22;60.95
65876;HTU21D;52657;51.128;5.938;2022-10-26T11:01:48;22.20;60.53
65876;HTU21D;52657;51.128;5.938;2022-10-26T11:07:06;22.20;60.42
65876;HTU21D;52657;51.128;5.938;2022-10-26T11:09:36;22.18;60.49
65876;HTU21D;52657;51.128;5.938;2022-10-26T11:12:08;22.18;60.77
65876;HTU21D;52657;51.128;5.938;2022-10-26T11:14:37;22.19;60.78
65876;HTU21D;52657;51.128;5.938;2022-10-26T11:17:21;22.23;60.94
65876;HTU21D;52657;51.128;5.938;2022-10-26T11:19:59;22.22;60.92
65876;HTU21D;52657;51.128;5.938;2022-10-26T11:22:34;22.22;60.89
65876;HTU21D;52657;51.128;5.938;2022-10-26T11:25:18;22.21;60.57
65876;HTU21D;52657;51.128;5.938;2022-10-26T11:28:00;22.20;60.60
65876;HTU21D;52657;51.128;5.938;2022-10-26T11:30:32;22.20;61.26
65876;HTU21D;52657;51.128;5.938;2022-10-26T11:33:21;22.22;61.13
65876;HTU21D;52657;51.128;5.938;2022-10-26T11:38:35;22.25;61.19
65876;HTU21D;52657;51.128;5.938;2022-10-26T11:43:50;22.32;61.21
65876;HTU21D;52657;51.128;5.938;2022-10-26T11:46:35;22.32;61.30
65876;HTU21D;52657;51.128;5.938;2022-10-26T11:52:15;22.35;61.18
65876;HTU21D;52657;51.128;5.938;2022-10-26T11:54:53;22.36;60.83
65876;HTU21D;52657;51.128;5.938;2022-10-26T11:57:22;22.39;61.17
65876;HTU21D;52657;51.128;5.938;2022-10-26T12:00:01;22.41;61.26
65876;HTU21D;52657;51.128;5.938;2022-10-26T12:02:36;22.44;61.37
65876;HTU21D;52657;51.128;5.938;2022-10-26T12:05:16;22.41;60.86
65876;HTU21D;52657;51.128;5.938;2022-10-26T12:07:51;22.43;60.72
65876;HTU21D;52657;51.128;5.938;2022-10-26T12:10:40;22.46;60.76
65876;HTU21D;52657;51.128;5.938;2022-10-26T12:15:55;22.51;60.57
65876;HTU21D;52657;51.128;5.938;2022-10-26T12:18:47;22.52;60.52
65876;HTU21D;52657;51.128;5.938;2022-10-26T12:21:16;22.55;60.57
65876;HTU21D;52657;51.128;5.938;2022-10-26T12:23:57;22.57;60.18
65876;HTU21D;52657;51.128;5.938;2022-10-26T12:34:11;22.67;59.85
65876;HTU21D;52657;51.128;5.938;2022-10-26T12:37:20;22.71;59.89
65876;HTU21D;52657;51.128;5.938;2022-10-26T12:39:47;22.76;59.48
65876;HTU21D;52657;51.128;5.938;2022-10-26T12:55:24;23.00;59.01
65876;HTU21D;52657;51.128;5.938;2022-10-26T13:09:17;23.25;57.90
65876;HTU21D;52657;51.128;5.938;2022-10-26T13:11:56;23.22;57.22
65876;HTU21D;52657;51.128;5.938;2022-10-26T13:14:35;23.22;57.32
65876;HTU21D;52657;51.128;5.938;2022-10-26T13:17:05;23.23;57.06
65876;HTU21D;52657;51.128;5.938;2022-10-26T13:22:18;23.21;56.26
65876;HTU21D;52657;51.128;5.938;2022-10-26T13:24:53;23.22;55.50
65876;HTU21D;52657;51.128;5.938;2022-10-26T13:27:39;23.22;54.65
65876;HTU21D;52657;51.128;5.938;2022-10-26T13:32:52;23.18;54.91
65876;HTU21D;52657;51.128;5.938;2022-10-26T13:35:22;23.18;54.46
65876;HTU21D;52657;51.128;5.938;2022-10-26T13:37:54;23.18;54.72
65876;HTU21D;52657;51.128;5.938;2022-10-26T13:40:26;23.18;54.17
65876;HTU21D;52657;51.128;5.938;2022-10-26T13:43:03;23.21;53.92
65876;HTU21D;52657;51.128;5.938;2022-10-26T13:45:35;23.16;54.01
65876;HTU21D;52657;51.128;5.938;2022-10-26T13:48:19;23.12;53.54
65876;HTU21D;52657;51.128;5.938;2022-10-26T13:50:53;23.10;53.56
65876;HTU21D;52657;51.128;5.938;2022-10-26T13:53:53;23.07;53.85
65876;HTU21D;52657;51.128;5.938;2022-10-26T13:56:56;23.08;53.76
65876;HTU21D;52657;51.128;5.938;2022-10-26T13:59:25;23.08;53.99
65876;HTU21D;52657;51.128;5.938;2022-10-26T14:02:15;23.07;54.38
65876;HTU21D;52657;51.128;5.938;2022-10-26T14:04:45;23.07;54.38
65876;HTU21D;52657;51.128;5.938;2022-10-26T14:07:18;23.03;54.41
65876;HTU21D;52657;51.128;5.938;2022-10-26T14:09:55;23.06;54.51
65876;HTU21D;52657;51.128;5.938;2022-10-26T14:12:23;23.06;54.84
65876;HTU21D;52657;51.128;5.938;2022-10-26T14:14:52;23.03;54.82
65876;HTU21D;52657;51.128;5.938;2022-10-26T14:17:20;23.00;54.40
65876;HTU21D;52657;51.128;5.938;2022-10-26T14:19:47;22.97;54.50
65876;HTU21D;52657;51.128;5.938;2022-10-26T14:22:31;22.97;54.65
65876;HTU21D;52657;51.128;5.938;2022-10-26T14:24:59;22.93;54.35
65876;HTU21D;52657;51.128;5.938;2022-10-26T14:27:38;22.87;54.26
65876;HTU21D;52657;51.128;5.938;2022-10-26T14:32:46;22.83;54.49
65876;HTU21D;52657;51.128;5.938;2022-10-26T14:35:13;22.79;54.40
65876;HTU21D;52657;51.128;5.938;2022-10-26T14:37:49;22.77;54.36
65876;HTU21D;52657;51.128;5.938;2022-10-26T14:40:24;22.78;54.81
65876;HTU21D;52657;51.128;5.938;2022-10-26T14:42:55;22.78;54.82
65876;HTU21D;52657;51.128;5.938;2022-10-26T14:45:29;22.76;54.96
65876;HTU21D;52657;51.128;5.938;2022-10-26T14:47:56;22.73;55.39
65876;HTU21D;52657;51.128;5.938;2022-10-26T14:50:23;22.77;55.64
65876;HTU21D;52657;51.128;5.938;2022-10-26T14:53:13;22.78;55.76
65876;HTU21D;52657;51.128;5.938;2022-10-26T14:55:46;22.77;55.83
65876;HTU21D;52657;51.128;5.938;2022-10-26T14:58:21;22.76;55.61
65876;HTU21D;52657;51.128;5.938;2022-10-26T15:01:14;22.67;55.68
65876;HTU21D;52657;51.128;5.938;2022-10-26T15:03:43;22.63;55.79
65876;HTU21D;52657;51.128;5.938;2022-10-26T15:08:55;22.61;55.71
65876;HTU21D;52657;51.128;5.938;2022-10-26T15:11:22;22.58;55.55
65876;HTU21D;52657;51.128;5.938;2022-10-26T15:13:48;22.56;55.76
65876;HTU21D;52657;51.128;5.938;2022-10-26T15:16:17;22.56;56.05
65876;HTU21D;52657;51.128;5.938;2022-10-26T15:18:46;22.49;56.06
65876;HTU21D;52657;51.128;5.938;2022-10-26T15:21:33;22.43;55.78
65876;HTU21D;52657;51.128;5.938;2022-10-26T15:24:00;22.41;55.99
65876;HTU21D;52657;51.128;5.938;2022-10-26T15:26:27;22.39;56.59
65876;HTU21D;52657;51.128;5.938;2022-10-26T15:28:54;22.35;56.57
65876;HTU21D;52657;51.128;5.938;2022-10-26T15:36:20;22.23;56.44
65876;HTU21D;52657;51.128;5.938;2022-10-26T15:38:47;22.23;56.61
65876;HTU21D;52657;51.128;5.938;2022-10-26T15:41:26;22.20;56.62
65876;HTU21D;52657;51.128;5.938;2022-10-26T15:43:57;22.22;57.06
65876;HTU21D;52657;51.128;5.938;2022-10-26T15:46:28;22.20;57.19
65876;HTU21D;52657;51.128;5.938;2022-10-26T15:48:57;22.18;57.51
65876;HTU21D;52657;51.128;5.938;2022-10-26T15:51:24;22.14;57.69
65876;HTU21D;52657;51.128;5.938;2022-10-26T15:53:50;22.12;58.07
65876;HTU21D;52657;51.128;5.938;2022-10-26T15:56:20;22.09;57.74
65876;HTU21D;52657;51.128;5.938;2022-10-26T15:58:48;22.04;57.86
65876;HTU21D;52657;51.128;5.938;2022-10-26T16:01:20;22.01;58.12
65876;HTU21D;52657;51.128;5.938;2022-10-26T16:03:46;21.95;58.38
65876;HTU21D;52657;51.128;5.938;2022-10-26T16:06:27;21.91;58.38
65876;HTU21D;52657;51.128;5.938;2022-10-26T16:08:56;21.88;58.61
65876;HTU21D;52657;51.128;5.938;2022-10-26T16:11:22;21.84;58.59
65876;HTU21D;52657;51.128;5.938;2022-10-26T16:13:49;21.79;58.87
65876;HTU21D;52657;51.128;5.938;2022-10-26T16:16:17;21.77;59.32
65876;HTU21D;52657;51.128;5.938;2022-10-26T16:18:43;21.76;59.51
65876;HTU21D;52657;51.128;5.938;2022-10-26T16:21:14;21.73;59.72
65876;HTU21D;52657;51.128;5.938;2022-10-26T16:23:41;21.67;59.77
65876;HTU21D;52657;51.128;5.938;2022-10-26T16:26:07;21.65;59.96
65876;HTU21D;52657;51.128;5.938;2022-10-26T16:28:35;21.62;60.05
65876;HTU21D;52657;51.128;5.938;2022-10-26T16:31:06;21.61;60.08
65876;HTU21D;52657;51.128;5.938;2022-10-26T16:33:33;21.57;60.37
65876;HTU21D;52657;51.128;5.938;2022-10-26T16:36:03;21.53;60.47
65876;HTU21D;52657;51.128;5.938;2022-10-26T16:38:30;21.49;60.65
65876;HTU21D;52657;51.128;5.938;2022-10-26T16:41:10;21.44;60.66
65876;HTU21D;52657;51.128;5.938;2022-10-26T16:43:41;21.36;60.83
65876;HTU21D;52657;51.128;5.938;2022-10-26T16:46:13;21.31;61.12
65876;HTU21D;52657;51.128;5.938;2022-10-26T16:48:41;21.27;61.34
65876;HTU21D;52657;51.128;5.938;2022-10-26T16:53:38;21.16;61.73
65876;HTU21D;52657;51.128;5.938;2022-10-26T16:56:06;21.13;61.84
65876;HTU21D;52657;51.128;5.938;2022-10-26T16:58:32;21.08;61.86
65876;HTU21D;52657;51.128;5.938;2022-10-26T17:00:58;21.04;61.95
65876;HTU21D;52657;51.128;5.938;2022-10-26T17:03:24;20.96;62.18
65876;HTU21D;52657;51.128;5.938;2022-10-26T17:05:54;20.90;62.30
65876;HTU21D;52657;51.128;5.938;2022-10-26T17:08:21;20.85;62.49
65876;HTU21D;52657;51.128;5.938;2022-10-26T17:10:46;20.78;62.72
65876;HTU21D;52657;51.128;5.938;2022-10-26T17:13:12;20.72;62.87
65876;HTU21D;52657;51.128;5.938;2022-10-26T17:15:37;20.65;63.20
65876;HTU21D;52657;51.128;5.938;2022-10-26T17:18:03;20.60;63.32
65876;HTU21D;52657;51.128;5.938;2022-10-26T17:20:29;20.54;63.44
65876;HTU21D;52657;51.128;5.938;2022-10-26T17:22:55;20.49;63.52
65876;HTU21D;52657;51.128;5.938;2022-10-26T17:25:22;20.44;63.72
65876;HTU21D;52657;51.128;5.938;2022-10-26T17:27:48;20.39;64.04
65876;HTU21D;52657;51.128;5.938;2022-10-26T17:30:13;20.34;64.18
65876;HTU21D;52657;51.128;5.938;2022-10-26T17:32:39;20.30;64.24
65876;HTU21D;52657;51.128;5.938;2022-10-26T17:35:05;20.24;64.47
65876;HTU21D;52657;51.128;5.938;2022-10-26T17:37:32;20.18;64.40
65876;HTU21D;52657;51.128;5.938;2022-10-26T17:39:58;20.13;64.56
65876;HTU21D;52657;51.128;5.938;2022-10-26T17:42:24;20.15;64.74
65876;HTU21D;52657;51.128;5.938;2022-10-26T17:44:50;20.12;64.93
65876;HTU21D;52657;51.128;5.938;2022-10-26T17:47:15;20.07;64.92
65876;HTU21D;52657;51.128;5.938;2022-10-26T17:49:41;20.05;65.11
65876;HTU21D;52657;51.128;5.938;2022-10-26T17:52:07;20.02;65.21